Time;durP1;ratioP1;P1;durP2;ratioP2;P2;SDS_P1;SDS_P2;PMS_P1;PMS_P2;Temp;Humidity;BMP_temperature;BMP_pressure;BME280_temperature;BME280_humidity;BME280_pressure;Samples;Min_cycle;Max_cycle;Signal;HPM_P1;HPM_P2
2022/10/04 00:01:49;;;;;;;14.50;2.60;;;;;;;9.92;84.42;100888.08;110864;1229;99099;-75
2022/10/04 00:04:40;;;;;;;19.90;3.30;;;;;;;9.90;84.43;100889.96;110843;1230;116384;-73
2022/10/04 00:07:12;;;;;;;;;;;;;;;9.86;84.36;100890.45;110723;1229;139609;-73
2022/10/04 00:09:56;;;;;;;13.80;3.50;;;;;;;9.84;84.67;100892.48;110877;1229;106885;-74
2022/10/04 00:12:29;;;;;;;17.00;2.50;;;;;;;9.82;84.56;100887.73;110728;1230;140737;-75
2022/10/04 00:14:58;;;;;;;17.20;2.60;;;;;;;9.81;84.66;100892.44;110764;1230;99010;-73
2022/10/04 00:17:29;;;;;;;24.40;3.60;;;;;;;9.78;84.64;100894.66;110684;1232;139170;-72
2022/10/04 00:19:55;;;;;;;20.70;3.10;;;;;;;9.76;84.49;100895.82;110885;1229;100534;-73
2022/10/04 00:22:28;;;;;;;19.20;2.20;;;;;;;9.72;84.54;100896.64;110811;1230;99087;-73
2022/10/04 00:25:06;;;;;;;17.80;2.50;;;;;;;9.70;84.63;100897.45;110715;1229;139430;-73
2022/10/04 00:27:31;;;;;;;18.70;2.70;;;;;;;9.68;84.78;100897.35;110896;1230;98926;-73
2022/10/04 00:30:03;;;;;;;14.80;2.60;;;;;;;9.66;84.68;100893.48;110751;1229;138739;-72
2022/10/04 00:32:28;;;;;;;;;;;;;;;9.64;84.84;100893.19;110920;1229;99719;-75
2022/10/04 00:34:55;;;;;;;16.80;2.50;;;;;;;9.62;84.73;100896.30;110882;1230;99372;-73
2022/10/04 00:37:24;;;;;;;15.60;2.30;;;;;;;9.60;84.63;100893.90;110761;1230;138744;-72
2022/10/04 00:40:13;;;;;;;18.20;2.90;;;;;;;9.57;84.79;100895.41;110885;1229;111700;-74
2022/10/04 00:42:45;;;;;;;15.60;2.70;;;;;;;9.56;84.87;100893.15;110734;1230;139792;-73
2022/10/04 00:45:22;;;;;;;14.70;2.50;;;;;;;9.53;84.83;100897.70;110756;1230;107649;-73
2022/10/04 00:47:47;;;;;;;19.90;2.70;;;;;;;9.52;84.82;100893.29;110780;1229;139076;-76
2022/10/04 00:50:23;;;;;;;17.40;2.40;;;;;;;9.51;84.78;100897.27;110864;1230;99040;-75
2022/10/04 00:52:56;;;;;;;18.10;3.50;;;;;;;9.49;84.90;100897.31;110902;1230;112698;-73
2022/10/04 00:55:32;;;;;;;14.70;2.70;;;;;;;9.49;84.99;100892.15;110671;1230;138830;-75
2022/10/04 00:57:59;;;;;;;20.90;3.50;;;;;;;9.48;85.04;100889.16;110796;1230;108475;-73
2022/10/04 01:00:26;;;;;;;20.30;4.60;;;;;;;9.45;84.91;100891.57;110730;1229;139510;-73
2022/10/04 01:03:14;;;;;;;23.70;3.80;;;;;;;9.44;85.02;100886.61;110840;1229;99037;-75
2022/10/04 01:05:49;;;;;;;23.40;3.40;;;;;;;9.42;84.85;100889.52;110753;1230;139261;-73
2022/10/04 01:08:26;;;;;;;17.50;2.80;;;;;;;9.40;84.93;100891.38;110941;1229;98924;-75
2022/10/04 01:10:57;;;;;;;12.70;2.90;;;;;;;9.40;85.08;100892.26;110835;1230;108326;-74
2022/10/04 01:13:30;;;;;;;17.00;2.90;;;;;;;9.40;84.96;100891.17;110748;1229;139278;-73
2022/10/04 01:16:03;;;;;;;14.70;2.60;;;;;;;9.39;84.93;100889.62;110837;1229;99078;-74
2022/10/04 01:18:34;;;;;;;17.80;2.70;;;;;;;9.38;84.94;100891.64;110780;1229;139371;-74
2022/10/04 01:21:17;;;;;;;21.50;3.40;;;;;;;9.35;85.00;100888.50;110774;1230;99735;-73
2022/10/04 01:23:56;;;;;;;18.00;4.10;;;;;;;9.32;85.00;100894.85;110730;1230;140557;-73
2022/10/04 01:26:33;;;;;;;22.00;2.30;;;;;;;9.31;84.99;100896.14;110841;1229;99004;-74
2022/10/04 01:29:04;;;;;;;16.50;2.70;;;;;;;9.29;85.07;100896.39;110864;1229;98940;-75
2022/10/04 01:31:32;;;;;;;21.30;3.80;;;;;;;9.28;84.97;100894.65;110809;1229;138512;-74
2022/10/04 01:33:59;;;;;;;15.90;3.70;;;;;;;9.25;85.07;100897.23;110806;1230;99749;-73
2022/10/04 01:36:26;;;;;;;8.00;2.00;;;;;;;9.23;85.16;100898.56;110575;1230;139257;-72
2022/10/04 01:38:54;;;;;;;16.60;3.10;;;;;;;9.21;85.14;100899.17;110825;1229;99276;-73
2022/10/04 01:41:35;;;;;;;23.90;5.40;;;;;;;9.18;85.05;100898.91;110669;1229;139756;-72
2022/10/04 01:44:04;;;;;;;22.90;3.90;;;;;;;9.15;85.11;100901.14;110730;1230;111506;-73
2022/10/04 01:46:35;;;;;;;15.90;3.60;;;;;;;9.13;85.31;100901.40;110897;1229;99782;-73
2022/10/04 01:49:11;;;;;;;16.80;2.90;;;;;;;9.11;85.17;100902.54;110590;1230;139395;-73
2022/10/04 01:51:43;;;;;;;22.30;2.40;;;;;;;9.09;85.20;100900.83;110875;1229;99117;-73
2022/10/04 01:54:14;;;;;;;13.20;2.10;;;;;;;9.06;85.25;100902.33;110640;1230;143056;-74
2022/10/04 01:56:46;;;;;;;16.70;2.20;;;;;;;9.05;85.49;100903.60;110792;1230;112547;-73
2022/10/04 01:59:23;;;;;;;23.30;2.60;;;;;;;9.04;85.48;100904.71;110720;1229;141118;-73
2022/10/04 02:01:54;;;;;;;15.40;2.10;;;;;;;9.02;85.57;100906.05;110873;1230;107714;-73
2022/10/04 02:04:27;;;;;;;16.90;2.80;;;;;;;9.01;85.66;100905.38;110918;1229;98952;-73
2022/10/04 02:06:55;;;;;;;16.30;2.60;;;;;;;9.02;85.63;100903.20;110733;1230;140913;-74
2022/10/04 02:09:28;;;;;;;13.40;2.50;;;;;;;9.02;85.81;100901.40;110789;1229;112763;-75
2022/10/04 02:11:57;;;;;;;25.70;2.90;;;;;;;9.03;85.86;100905.11;110720;1229;138820;-74
2022/10/04 02:14:32;;;;;;;11.10;2.00;;;;;;;9.02;85.95;100904.61;110875;1229;106840;-75
2022/10/04 02:17:01;;;;;;;18.60;2.40;;;;;;;9.02;85.91;100901.92;110852;1229;99049;-73
2022/10/04 02:19:36;;;;;;;21.30;2.20;;;;;;;9.04;86.15;100900.25;110775;1229;139195;-76
2022/10/04 02:22:04;;;;;;;17.30;3.50;;;;;;;9.05;86.23;100902.02;110865;1229;112612;-75
2022/10/04 02:24:34;;;;;;;18.00;3.20;;;;;;;9.04;86.17;100906.86;110779;1229;138952;-73
2022/10/04 02:26:59;;;;;;;27.70;3.20;;;;;;;9.05;86.13;100908.62;110819;1229;107718;-74
2022/10/04 02:29:25;;;;;;;11.80;3.50;;;;;;;9.07;86.35;100907.11;110674;1230;139163;-74
2022/10/04 02:34:36;;;;;;;15.60;2.10;;;;;;;9.12;86.45;100909.61;110880;1229;98943;-75
2022/10/04 02:37:03;;;;;;;16.70;2.80;;;;;;;9.15;86.52;100915.05;110724;1228;139330;-75
2022/10/04 02:39:35;;;;;;;19.60;3.20;;;;;;;9.19;86.52;100917.08;110809;1229;99133;-74
2022/10/04 02:42:36;;;;;;;12.90;2.60;;;;;;;9.20;86.41;100917.02;110761;1229;139301;-75
2022/10/04 02:45:15;;;;;;;11.90;2.40;;;;;;;9.22;86.70;100921.23;110857;1229;113271;-73
2022/10/04 02:47:47;;;;;;;16.10;2.00;;;;;;;9.25;86.56;100925.61;110785;1229;140145;-73
2022/10/04 02:50:27;;;;;;;13.60;2.60;;;;;;;9.24;86.51;100924.36;110787;1229;108930;-75
2022/10/04 02:53:17;;;;;;;11.90;2.20;;;;;;;9.23;86.51;100919.42;110783;1230;102752;-74
2022/10/04 02:55:42;;;;;;;22.10;2.40;;;;;;;9.20;86.53;100920.08;110911;1229;100417;-73
2022/10/04 02:58:13;;;;;;;15.60;2.80;;;;;;;9.17;86.74;100921.93;110874;1229;98956;-73
2022/10/04 03:00:56;;;;;;;11.50;2.30;;;;;;;9.16;86.60;100922.34;110693;1230;139285;-80
2022/10/04 03:03:28;;;;;;;15.80;2.30;;;;;;;9.12;86.59;100917.84;110773;1230;107821;-76
2022/10/04 03:06:05;;;;;;;14.80;1.90;;;;;;;9.08;86.70;100914.56;110717;1229;139058;-73
2022/10/04 03:08:45;;;;;;;17.50;2.90;;;;;;;9.05;86.63;100915.38;110842;1228;98927;-74
2022/10/04 03:11:12;;;;;;;13.90;2.20;;;;;;;9.01;86.66;100915.33;110719;1228;139051;-72
2022/10/04 03:13:40;;;;;;;13.40;2.30;;;;;;;8.97;86.79;100915.46;110912;1229;99776;-73
2022/10/04 03:16:06;;;;;;;17.70;2.30;;;;;;;8.92;86.75;100919.73;110822;1230;108040;-74
2022/10/04 03:18:34;;;;;;;15.40;2.60;;;;;;;8.88;86.98;100917.36;110740;1229;138820;-73
2022/10/04 03:21:01;;;;;;;16.60;2.80;;;;;;;8.84;86.88;100921.80;110851;1229;98779;-75
2022/10/04 03:23:29;;;;;;;19.70;2.30;;;;;;;8.80;86.92;100923.85;110671;1229;138778;-73
2022/10/04 03:26:06;;;;;;;7.30;2.00;;;;;;;8.77;87.03;100920.21;110918;1229;98980;-75
2022/10/04 03:28:31;;;;;;;19.80;2.90;;;;;;;8.74;87.14;100925.99;110808;1230;108227;-75
2022/10/04 03:30:57;;;;;;;21.70;3.30;;;;;;;8.70;87.24;100926.14;110660;1230;138860;-73
2022/10/04 03:33:25;;;;;;;31.30;3.20;;;;;;;8.68;87.21;100922.63;110866;1230;98989;-73
2022/10/04 03:35:54;;;;;;;13.40;2.40;;;;;;;8.66;87.40;100922.52;110742;1229;139013;-74
2022/10/04 03:38:21;;;;;;;15.80;2.80;;;;;;;8.65;87.53;100919.88;110829;1230;107359;-75
2022/10/04 03:40:55;;;;;;;18.80;3.90;;;;;;;8.63;87.66;100919.21;110883;1230;98262;-73
2022/10/04 03:43:25;;;;;;;19.10;2.60;;;;;;;8.61;87.73;100916.25;110751;1229;138821;-74
2022/10/04 03:45:52;;;;;;;16.70;2.70;;;;;;;8.59;87.79;100918.99;110787;1230;113270;-74
2022/10/04 03:48:27;;;;;;;15.90;3.00;;;;;;;8.57;88.01;100915.46;110743;1229;139554;-75
2022/10/04 03:50:53;;;;;;;20.40;2.80;;;;;;;8.57;88.14;100917.11;110820;1229;107002;-72
2022/10/04 03:53:38;;;;;;;17.20;2.20;;;;;;;8.56;88.35;100910.36;110752;1230;140794;-73
2022/10/04 03:56:11;;;;;;;27.20;2.70;;;;;;;8.55;88.54;100908.24;110847;1230;97942;-73
2022/10/04 03:58:37;;;;;;;20.10;3.70;;;;;;;8.55;88.51;100912.71;110928;1229;112281;-73
2022/10/04 04:01:44;;;;;;;21.00;2.80;;;;;;;8.56;88.56;100910.38;110743;1228;140437;-73
2022/10/04 04:04:21;;;;;;;16.40;3.00;;;;;;;8.57;88.48;100914.95;110686;1230;107915;-73
2022/10/04 04:06:59;;;;;;;15.30;2.70;;;;;;;8.58;88.72;100916.89;110684;1230;139701;-71
2022/10/04 04:09:36;;;;;;;25.50;3.20;;;;;;;8.62;88.86;100927.27;110876;1229;98978;-74
2022/10/04 04:12:08;;;;;;;25.50;4.10;;;;;;;8.68;88.87;100925.48;110746;1230;138674;-74
2022/10/04 04:14:33;;;;;;;;;;;;;;;8.72;88.94;100928.92;110878;1229;99675;-72
2022/10/04 04:17:29;;;;;;;19.90;3.50;;;;;;;8.75;88.95;100927.23;110817;1230;99115;-72
2022/10/04 04:20:02;;;;;;;24.00;4.00;;;;;;;8.80;89.08;100934.73;110841;1229;98963;-72
2022/10/04 04:22:30;;;;;;;22.10;4.60;;;;;;;8.86;89.20;100934.90;110877;1230;98689;-72
2022/10/04 04:25:00;;;;;;;14.80;3.30;;;;;;;8.91;89.29;100939.54;110778;1230;139401;-73
2022/10/04 04:27:28;;;;;;;20.80;4.60;;;;;;;8.96;89.36;100948.48;110868;1230;100663;-76
2022/10/04 04:29:54;;;;;;;17.60;5.40;;;;;;;9.00;89.37;100948.17;110813;1229;139048;-74
2022/10/04 04:32:24;;;;;;;13.40;4.30;;;;;;;9.03;89.33;100951.27;110772;1230;97896;-73
2022/10/04 04:34:52;;;;;;;20.80;3.80;;;;;;;9.07;89.43;100950.25;110832;1230;99645;-76
2022/10/04 04:37:19;;;;;;;26.30;4.80;;;;;;;9.11;89.43;100958.50;110737;1229;139189;-73
2022/10/04 04:39:50;;;;;;;12.30;4.30;;;;;;;9.15;89.45;100964.61;110912;1229;99513;-74
2022/10/04 04:42:20;;;;;;;15.10;4.90;;;;;;;9.18;89.34;100965.76;110762;1229;138984;-74
2022/10/04 04:45:04;;;;;;;19.00;4.50;;;;;;;9.20;89.55;100963.77;110833;1229;99176;-74
2022/10/04 04:47:33;;;;;;;17.50;4.80;;;;;;;9.22;89.51;100963.32;110786;1230;138824;-74
2022/10/04 04:50:23;;;;;;;24.60;5.30;;;;;;;9.25;89.63;100969.64;110736;1230;112416;-73
2022/10/04 04:52:57;;;;;;;16.30;5.10;;;;;;;9.29;89.58;100969.69;110870;1230;101115;-73
2022/10/04 04:55:26;;;;;;;30.00;5.40;;;;;;;9.30;89.56;100972.67;110769;1230;140042;-76
2022/10/04 04:57:55;;;;;;;20.80;4.60;;;;;;;9.33;89.48;100972.06;110821;1229;99406;-73
2022/10/04 05:00:27;;;;;;;14.30;4.80;;;;;;;9.36;89.63;100976.06;110679;1230;138764;-74
2022/10/04 05:02:55;;;;;;;19.00;4.90;;;;;;;9.38;89.64;100972.59;110820;1230;112126;-73
2022/10/04 05:05:29;;;;;;;20.70;5.00;;;;;;;9.41;89.86;100977.13;110682;1230;141026;-74
2022/10/04 05:08:13;;;;;;;30.70;5.20;;;;;;;9.41;89.72;100978.73;110774;1230;107611;-76
2022/10/04 05:11:05;;;;;;;15.90;4.60;;;;;;;9.44;89.78;100986.30;110847;1230;98980;-74
2022/10/04 05:13:41;;;;;;;16.40;5.10;;;;;;;9.46;89.78;100989.80;110626;1229;139342;-74
2022/10/04 05:16:16;;;;;;;14.50;5.00;;;;;;;9.48;89.78;100993.31;110788;1229;112971;-73
2022/10/04 05:18:41;;;;;;;25.50;7.00;;;;;;;9.49;89.76;100989.36;110785;1229;138806;-75
2022/10/04 05:21:21;;;;;;;18.00;5.50;;;;;;;9.51;89.77;100984.30;110865;1229;99027;-74
2022/10/04 05:23:46;;;;;;;17.10;5.30;;;;;;;9.53;89.76;100987.27;110683;1230;138994;-74
2022/10/04 05:26:13;;;;;;;20.90;5.70;;;;;;;9.55;89.78;100985.77;110841;1228;99037;-75
2022/10/04 05:28:40;;;;;;;23.80;6.00;;;;;;;9.57;89.62;100990.70;110886;1229;98969;-74
2022/10/04 05:31:24;;;;;;;18.10;5.60;;;;;;;9.59;89.83;100995.98;110848;1229;138802;-74
2022/10/04 05:33:52;;;;;;;23.20;6.00;;;;;;;9.61;89.81;100997.86;110839;1229;98972;-75
2022/10/04 05:36:40;;;;;;;13.80;4.70;;;;;;;9.63;89.80;101002.27;110682;1230;140040;-75
2022/10/04 05:39:35;;;;;;;17.00;4.60;;;;;;;9.65;89.90;101000.25;110865;1230;112638;-75
2022/10/04 05:42:11;;;;;;;23.40;5.00;;;;;;;9.66;89.96;101004.48;110726;1230;138823;-76
2022/10/04 05:44:48;;;;;;;18.00;5.80;;;;;;;9.68;89.87;101007.42;110864;1229;107910;-73
2022/10/04 05:47:14;;;;;;;15.30;4.90;;;;;;;9.72;89.84;101010.86;110729;1227;139091;-75
2022/10/04 05:49:42;;;;;;;22.60;5.20;;;;;;;9.76;89.87;101013.42;110926;1227;99059;-74
2022/10/04 05:52:24;;;;;;;23.20;5.60;;;;;;;9.79;89.66;101011.73;110874;1229;100192;-75
2022/10/04 05:55:26;;;;;;;19.40;5.60;;;;;;;9.83;89.77;101015.86;110731;1230;139673;-75
2022/10/04 05:58:00;;;;;;;18.00;5.50;;;;;;;9.85;89.54;101018.46;110879;1230;108921;-74
2022/10/04 06:00:50;;;;;;;16.50;5.60;;;;;;;9.88;89.56;101021.77;110811;1229;139031;-74
2022/10/04 06:03:47;;;;;;;14.70;5.30;;;;;;;9.91;89.55;101022.89;110926;1229;98965;-75
2022/10/04 06:06:43;;;;;;;17.20;5.10;;;;;;;9.94;89.62;101026.72;110795;1229;141973;-74
2022/10/04 06:09:26;;;;;;;16.20;4.80;;;;;;;9.95;89.63;101025.61;110886;1229;99615;-76
2022/10/04 06:12:03;;;;;;;20.70;5.70;;;;;;;9.98;89.64;101024.60;110680;1230;139388;-74
2022/10/04 06:14:49;;;;;;;19.90;5.00;;;;;;;10.02;89.63;101031.25;110831;1231;99046;-74
2022/10/04 06:17:40;;;;;;;22.20;5.40;;;;;;;10.07;89.43;101031.98;110693;1230;140598;-74
2022/10/04 06:20:26;;;;;;;23.20;6.60;;;;;;;10.13;89.45;101033.75;110828;1231;112142;-76
2022/10/04 06:23:00;;;;;;;24.80;5.20;;;;;;;10.18;89.48;101041.96;110847;1232;98993;-75
2022/10/04 06:25:36;;;;;;;14.90;4.70;;;;;;;10.20;89.33;101040.83;110737;1232;138793;-73
2022/10/04 06:28:18;;;;;;;19.20;5.40;;;;;;;10.25;89.32;101042.98;110762;1232;99006;-74
2022/10/04 06:31:25;;;;;;;20.90;4.90;;;;;;;10.30;89.15;101048.14;110691;1231;140118;-76
2022/10/04 06:34:23;;;;;;;26.20;5.00;;;;;;;10.34;89.22;101044.98;110745;1232;112598;-75
2022/10/04 06:37:04;;;;;;;21.20;5.00;;;;;;;10.37;89.10;101050.23;110665;1231;139062;-75
2022/10/04 06:39:41;;;;;;;16.60;3.70;;;;;;;10.43;89.12;101051.40;110504;1231;108813;-75
2022/10/04 06:42:33;;;;;;;16.50;4.70;;;;;;;10.50;89.00;101058.31;110614;1232;138951;-76
2022/10/04 06:45:20;;;;;;;22.60;4.70;;;;;;;10.56;88.98;101055.40;110732;1232;99501;-76
2022/10/04 06:48:15;;;;;;;21.40;4.50;;;;;;;10.61;88.77;101063.77;110669;1232;139389;-73
2022/10/04 06:51:13;;;;;;;19.30;4.60;;;;;;;10.65;88.71;101062.73;110770;1231;99715;-74
2022/10/04 06:54:02;;;;;;;17.30;4.80;;;;;;;10.67;88.47;101062.13;110670;1232;139249;-76
2022/10/04 06:57:23;;;;;;;17.10;4.80;;;;;;;10.69;88.32;101063.83;110900;1232;99311;-80
2022/10/04 07:00:06;;;;;;;16.40;4.60;;;;;;;10.75;88.27;101064.52;110227;1235;139219;-78
2022/10/04 07:02:42;;;;;;;22.10;4.20;;;;;;;10.80;88.21;101068.45;110868;1232;113518;-78
2022/10/04 07:05:31;;;;;;;22.20;4.40;;;;;;;10.83;88.03;101067.80;110846;1232;139415;-75
2022/10/04 07:08:29;;;;;;;9.70;3.70;;;;;;;10.87;88.03;101074.79;110897;1231;108142;-76
2022/10/04 07:11:02;;;;;;;22.00;5.70;;;;;;;10.89;87.82;101074.02;110762;1231;99088;-76
2022/10/04 07:13:39;;;;;;;19.60;5.00;;;;;;;10.91;87.82;101076.25;110838;1229;139521;-78
2022/10/04 07:16:28;;;;;;;19.20;4.10;;;;;;;10.98;87.81;101079.19;111062;1230;112719;-72
2022/10/04 07:19:30;;;;;;;16.20;4.30;;;;;;;11.02;87.54;101083.86;110838;1227;139154;-76
2022/10/04 07:22:10;;;;;;;11.20;3.70;;;;;;;11.06;87.51;101081.02;110678;1230;108805;-76
2022/10/04 07:24:52;;;;;;;12.90;4.20;;;;;;;11.14;87.46;101086.11;110856;1229;139262;-75
2022/10/04 07:30:51;;;;;;;17.30;4.40;;;;;;;11.27;87.17;101086.46;110853;1230;139109;-73
2022/10/04 07:33:22;;;;;;;18.20;3.80;;;;;;;11.33;87.02;101083.18;110948;1232;100295;-72
2022/10/04 07:35:52;;;;;;;20.60;4.30;;;;;;;11.38;86.83;101088.70;110887;1229;139719;-72
2022/10/04 07:38:25;;;;;;;17.40;3.60;;;;;;;11.42;86.75;101088.41;110917;1230;99029;-74
2022/10/04 07:41:09;;;;;;;10.10;2.60;;;;;;;11.46;86.46;101090.41;110873;1230;99164;-72
2022/10/04 07:43:50;;;;;;;12.20;3.20;;;;;;;11.46;85.79;101091.63;110719;1230;114353;-71
2022/10/04 07:46:47;;;;;;;12.80;3.70;;;;;;;11.48;85.72;101095.14;111045;1229;101605;-72
2022/10/04 07:49:15;;;;;;;9.90;3.60;;;;;;;11.53;85.35;101104.79;110867;1229;139065;-72
2022/10/04 07:51:54;;;;;;;10.80;3.60;;;;;;;11.52;84.73;101101.41;111034;1229;98985;-72
2022/10/04 07:54:40;;;;;;;8.10;3.10;;;;;;;11.57;84.74;101101.05;110936;1229;138767;-73
2022/10/04 07:57:26;;;;;;;15.40;3.40;;;;;;;11.65;84.80;101103.74;111023;1228;112691;-74
2022/10/04 08:00:27;;;;;;;11.00;3.20;;;;;;;11.68;84.14;101103.61;110909;1228;141259;-71
2022/10/04 08:03:11;;;;;;;;;;;;;;;11.72;84.19;101109.72;110954;1229;107841;-71
2022/10/04 08:06:10;;;;;;;14.60;3.70;;;;;;;11.73;83.91;101110.07;110915;1229;125458;-70
2022/10/04 08:08:49;;;;;;;12.80;3.30;;;;;;;11.77;83.79;101112.79;110950;1230;98945;-72
2022/10/04 08:11:42;;;;;;;13.40;3.30;;;;;;;11.85;83.88;101117.48;110902;1230;138970;-70
2022/10/04 08:14:34;;;;;;;24.20;3.70;;;;;;;11.95;83.72;101117.23;110691;1230;99126;-70
2022/10/04 08:17:13;;;;;;;15.90;3.80;;;;;;;12.03;83.46;101119.94;110810;1228;107709;-72
2022/10/04 08:20:01;;;;;;;11.20;2.90;;;;;;;12.07;83.31;101124.81;110977;1228;98944;-71
2022/10/04 08:22:49;;;;;;;12.10;3.00;;;;;;;12.09;83.30;101126.67;110907;1228;99015;-70
2022/10/04 08:25:25;;;;;;;11.80;3.30;;;;;;;12.17;83.27;101126.91;110888;1229;139666;-70
2022/10/04 08:31:26;;;;;;;14.10;3.00;;;;;;;12.32;82.38;101129.65;112341;1228;139020;-72
2022/10/04 08:34:17;;;;;;;12.20;2.90;;;;;;;12.37;82.11;101125.84;112434;1229;97245;-72
2022/10/04 08:37:31;;;;;;;15.00;3.30;;;;;;;12.45;81.97;101129.43;111035;1230;138867;-73
2022/10/04 08:40:22;;;;;;;10.10;3.10;;;;;;;12.48;81.58;101130.73;110995;1228;112194;-71
2022/10/04 08:43:12;;;;;;;16.10;3.10;;;;;;;12.47;81.43;101134.91;110902;1230;140438;-72
2022/10/04 08:45:55;;;;;;;12.20;2.50;;;;;;;12.48;80.58;101138.28;111058;1229;107641;-71
2022/10/04 08:48:58;;;;;;;9.00;2.10;;;;;;;12.42;80.63;101139.77;110197;1229;139358;-69
2022/10/04 08:52:01;;;;;;;9.60;2.60;;;;;;;12.49;80.83;101142.86;110572;1227;98950;-70
2022/10/04 08:55:01;;;;;;;14.90;3.50;;;;;;;12.58;80.61;101146.08;110840;1228;139499;-70
2022/10/04 08:57:56;;;;;;;9.70;2.40;;;;;;;12.67;80.65;101148.16;111019;1229;99211;-72
2022/10/04 09:00:39;;;;;;;15.10;2.90;;;;;;;12.70;80.13;101154.73;110764;1231;139849;-71
2022/10/04 09:03:41;;;;;;;14.70;2.80;;;;;;;12.71;80.16;101151.63;110867;1232;99247;-70
2022/10/04 09:06:17;;;;;;;8.40;2.20;;;;;;;12.75;79.74;101144.08;110774;1231;139025;-72
2022/10/04 09:09:20;;;;;;;10.30;2.10;;;;;;;12.76;79.39;101144.40;110868;1232;112785;-72
2022/10/04 09:12:08;;;;;;;7.50;2.00;;;;;;;12.68;78.52;101145.61;110750;1232;139950;-73
2022/10/04 09:15:01;;;;;;;6.10;1.80;;;;;;;12.66;78.44;101156.45;110854;1230;108778;-71
2022/10/04 09:17:49;;;;;;;8.80;2.10;;;;;;;12.67;77.81;101151.06;111723;1230;139647;-72
2022/10/04 09:20:41;;;;;;;4.90;2.10;;;;;;;12.79;77.90;101157.52;110843;1231;98950;-72
2022/10/04 09:23:42;;;;;;;12.30;1.90;;;;;;;12.88;77.65;101160.33;110850;1231;112633;-73
2022/10/04 09:26:37;;;;;;;7.80;1.70;;;;;;;12.92;77.05;101170.73;110864;1231;99868;-72
2022/10/04 09:29:15;;;;;;;12.80;2.80;;;;;;;12.88;76.17;101163.41;110777;1232;107352;-73
2022/10/04 09:31:52;;;;;;;5.70;1.80;;;;;;;12.89;76.20;101164.45;110854;1230;99358;-74
2022/10/04 09:34:49;;;;;;;11.10;2.90;;;;;;;12.89;75.78;101169.25;111017;1230;99030;-70
2022/10/04 09:37:36;;;;;;;6.60;2.30;;;;;;;12.85;75.32;101173.92;110884;1230;138948;-70
2022/10/04 09:40:49;;;;;;;11.10;2.30;;;;;;;12.83;75.34;101180.66;110976;1230;99710;-73
2022/10/04 09:43:41;;;;;;;12.10;3.10;;;;;;;12.88;74.97;101170.20;110804;1229;138853;-71
2022/10/04 09:46:32;;;;;;;12.30;2.10;;;;;;;12.96;75.24;101172.92;110939;1229;98950;-75
2022/10/04 09:49:06;;;;;;;7.70;2.10;;;;;;;13.07;75.17;101173.98;110837;1230;138763;-72
2022/10/04 09:52:00;;;;;;;8.80;1.80;;;;;;;13.15;74.66;101169.69;111018;1230;113062;-70
2022/10/04 09:55:21;;;;;;;8.50;2.20;;;;;;;13.12;73.90;101171.23;110894;1230;139629;-72
2022/10/04 09:58:08;;;;;;;7.60;1.50;;;;;;;13.13;73.48;101172.29;110344;1235;108244;-71
2022/10/04 10:00:55;;;;;;;18.30;3.30;;;;;;;13.14;73.27;101179.23;110788;1230;138935;-71
2022/10/04 10:03:52;;;;;;;12.90;2.30;;;;;;;13.19;73.63;101177.95;111031;1229;99021;-71
2022/10/04 10:06:30;;;;;;;8.80;2.10;;;;;;;13.28;73.34;101181.48;110856;1229;138829;-71
2022/10/04 10:09:14;;;;;;;5.40;1.60;;;;;;;13.21;72.37;101186.13;110924;1229;99781;-70
2022/10/04 10:15:04;;;;;;;15.40;2.50;;;;;;;13.29;72.68;101184.33;110934;1230;99017;-72
2022/10/04 10:17:44;;;;;;;9.20;2.10;;;;;;;13.29;72.40;101183.05;110878;1230;141073;-71
2022/10/04 10:20:18;;;;;;;12.90;2.50;;;;;;;13.31;72.57;101185.83;110946;1230;112621;-74
2022/10/04 10:23:18;;;;;;;6.80;1.60;;;;;;;13.39;72.41;101186.04;110961;1230;100001;-73
2022/10/04 10:26:16;;;;;;;12.70;2.30;;;;;;;13.35;72.21;101185.46;110938;1229;107807;-73
2022/10/04 10:29:09;;;;;;;9.40;2.20;;;;;;;13.33;72.03;101189.67;110979;1229;99010;-73
2022/10/04 10:31:50;;;;;;;6.40;2.40;;;;;;;13.34;72.10;101192.89;110955;1230;99034;-73
2022/10/04 10:34:35;;;;;;;7.60;2.20;;;;;;;13.34;71.79;101200.61;110951;1230;113261;-72
2022/10/04 10:37:21;;;;;;;8.50;2.20;;;;;;;13.34;71.82;101206.89;110841;1229;139517;-71
2022/10/04 10:40:18;;;;;;;4.50;1.50;;;;;;;13.34;71.44;101212.63;110979;1229;108302;-72
2022/10/04 10:43:00;;;;;;;4.60;1.90;;;;;;;13.35;71.39;101208.66;110773;1232;138804;-71
2022/10/04 10:45:46;;;;;;;13.10;1.90;;;;;;;13.43;71.36;101211.13;110912;1232;99014;-71
2022/10/04 10:48:32;;;;;;;10.40;1.80;;;;;;;13.57;70.44;101211.02;110781;1232;139134;-73
2022/10/04 10:51:35;;;;;;;11.00;2.20;;;;;;;13.58;70.12;101213.48;110854;1232;99745;-72
2022/10/04 10:54:24;;;;;;;6.80;1.90;;;;;;;13.55;70.12;101212.36;110721;1232;139232;-70
2022/10/04 10:57:10;;;;;;;8.30;1.60;;;;;;;13.51;69.71;101209.87;110910;1232;99676;-71
2022/10/04 11:00:04;;;;;;;5.70;1.60;;;;;;;13.44;69.89;101213.94;110828;1232;140990;-72
2022/10/04 11:02:52;;;;;;;10.30;1.60;;;;;;;13.48;70.03;101213.08;110930;1232;114937;-71
2022/10/04 11:05:30;;;;;;;6.80;2.00;;;;;;;13.49;69.78;101211.92;110676;1232;140388;-70
2022/10/04 11:08:18;;;;;;;11.10;1.80;;;;;;;13.46;69.43;101212.27;110863;1232;108343;-72
2022/10/04 11:11:16;;;;;;;9.50;2.00;;;;;;;13.42;69.35;101214.42;110911;1232;99175;-72
2022/10/04 11:14:10;;;;;;;6.90;1.90;;;;;;;13.50;69.21;101218.37;110994;1230;99446;-71
2022/10/04 11:17:02;;;;;;;9.20;2.10;;;;;;;13.67;69.12;101217.94;111046;1229;111963;-72
2022/10/04 11:20:12;;;;;;;7.50;1.70;;;;;;;13.74;68.40;101223.88;110817;1230;139013;-71
2022/10/04 11:23:16;;;;;;;5.70;1.90;;;;;;;13.70;68.51;101223.54;110961;1230;106770;-72
2022/10/04 11:26:09;;;;;;;9.70;2.10;;;;;;;13.64;67.99;101228.64;111008;1230;99099;-72
2022/10/04 11:29:09;;;;;;;6.50;2.10;;;;;;;13.59;67.42;101224.76;111028;1230;99312;-70
2022/10/04 11:31:56;;;;;;;5.90;1.70;;;;;;;13.74;67.88;101220.09;110786;1230;112633;-72
2022/10/04 11:34:59;;;;;;;5.80;1.60;;;;;;;14.02;67.75;101219.13;110733;1230;100426;-74
2022/10/04 11:37:52;;;;;;;4.80;1.80;;;;;;;14.28;67.29;101223.38;110930;1229;139490;-72
2022/10/04 11:40:20;;;;;;;5.70;1.40;;;;;;;14.40;66.39;101224.56;111060;1227;98959;-73
2022/10/04 11:42:54;;;;;;;7.30;2.00;;;;;;;14.43;66.32;101224.14;110981;1230;139044;-71
2022/10/04 11:45:41;;;;;;;7.80;1.70;;;;;;;14.42;66.70;101220.36;110384;1229;111641;-71
2022/10/04 11:48:18;;;;;;;3.50;1.50;;;;;;;14.39;66.47;101217.09;110959;1229;138816;-71
2022/10/04 11:51:12;;;;;;;5.90;1.80;;;;;;;14.38;66.29;101214.48;110958;1228;105950;-72
2022/10/04 11:54:06;;;;;;;4.20;1.40;;;;;;;14.27;66.00;101216.95;110777;1230;138525;-71
2022/10/04 11:56:55;;;;;;;5.80;1.70;;;;;;;14.18;65.75;101215.63;110893;1230;98979;-72
2022/10/04 11:59:43;;;;;;;7.30;1.90;;;;;;;14.12;65.46;101213.43;110743;1230;138580;-73
2022/10/04 12:02:27;;;;;;;5.40;1.70;;;;;;;14.35;65.72;101215.87;110754;1230;98985;-71
2022/10/04 12:05:10;;;;;;;9.90;1.60;;;;;;;14.60;65.61;101218.05;110760;1230;107184;-71
2022/10/04 12:07:50;;;;;;;8.20;1.50;;;;;;;14.82;65.13;101215.84;110821;1230;99950;-73
2022/10/04 12:10:33;;;;;;;5.70;1.30;;;;;;;14.83;65.15;101210.21;110829;1230;99075;-72
2022/10/04 12:13:32;;;;;;;7.90;1.50;;;;;;;14.81;64.33;101208.53;110638;1230;138287;-71
2022/10/04 12:16:28;;;;;;;7.40;2.20;;;;;;;14.60;64.13;101207.23;110822;1230;98952;-71
2022/10/04 12:19:31;;;;;;;7.50;1.90;;;;;;;14.47;64.15;101206.30;110716;1230;140135;-73
2022/10/04 12:22:34;;;;;;;8.10;1.70;;;;;;;14.36;64.20;101199.80;110849;1229;98962;-73
2022/10/04 12:25:18;;;;;;;2.40;1.10;;;;;;;14.39;64.67;101202.38;110787;1230;138498;-75
2022/10/04 12:28:11;;;;;;;5.30;1.40;;;;;;;14.87;65.28;101197.57;110789;1230;112690;-75